Time;durP1;ratioP1;P1;durP2;ratioP2;P2;SDS_P1;SDS_P2;PMS_P1;PMS_P2;Temp;Humidity;BMP_temperature;BMP_pressure;BME280_temperature;BME280_humidity;BME280_pressure;Samples;Min_cycle;Max_cycle;Signal;HPM_P1;HPM_P2
2022/04/25 00:00:21;;;;;;;10.48;3.42;;;;;;;22.80;39.48;102083.00;4176465;28;20102;-67
2022/04/25 00:02:22;;;;;;;3.78;1.77;;;;;;;23.18;39.91;102150.88;4172525;28;20045;-65
2022/04/25 00:04:24;;;;;;;6.15;1.83;;;;;;;23.09;39.57;102141.31;4180687;28;20029;-64
2022/04/25 00:06:28;;;;;;;5.47;1.88;;;;;;;23.18;39.55;102155.63;4172580;28;20425;-64
2022/04/25 00:08:29;;;;;;;4.68;1.80;;;;;;;23.12;39.96;102146.38;4179530;28;20041;-64
2022/04/25 00:10:30;;;;;;;7.53;2.47;;;;;;;23.17;39.82;102148.38;4167947;28;20071;-64
2022/04/25 00:12:32;;;;;;;7.53;2.25;;;;;;;23.17;39.63;102153.94;4179581;28;20083;-67
2022/04/25 00:14:33;;;;;;;4.65;1.90;;;;;;;23.17;39.69;102148.38;4177359;28;20041;-63
2022/04/25 00:16:34;;;;;;;8.75;2.40;;;;;;;23.15;39.92;102151.44;4175387;28;20037;-65
2022/04/25 00:18:36;;;;;;;6.70;1.83;;;;;;;23.15;39.72;102162.59;4182803;28;20573;-65
2022/04/25 00:20:37;;;;;;;4.85;2.08;;;;;;;23.15;39.99;102151.44;4177477;28;20017;-64
2022/04/25 00:22:39;;;;;;;7.85;2.05;;;;;;;23.14;40.13;102152.56;4181025;28;20041;-65
2022/04/25 00:24:41;;;;;;;9.18;2.10;;;;;;;23.15;39.64;102157.03;4180904;28;20037;-65
2022/04/25 00:26:42;;;;;;;6.22;2.22;;;;;;;23.11;39.88;102153.06;4175027;28;20091;-65
2022/04/25 00:28:43;;;;;;;4.57;1.90;;;;;;;23.13;39.77;102152.78;4169094;28;20049;-65
2022/04/25 00:30:47;;;;;;;4.50;1.90;;;;;;;23.11;40.07;102161.44;4171112;28;20092;-65
2022/04/25 00:32:48;;;;;;;6.00;1.90;;;;;;;23.12;40.18;102168.72;4167402;28;20562;-65
2022/04/25 00:34:50;;;;;;;5.15;2.10;;;;;;;23.14;40.00;102166.50;4178321;28;20049;-64
2022/04/25 00:36:54;;;;;;;5.57;2.00;;;;;;;23.14;39.99;102171.22;4177970;28;20548;-64
2022/04/25 00:38:56;;;;;;;5.22;1.83;;;;;;;23.12;40.02;102173.47;4179839;28;20550;-63
2022/04/25 00:40:58;;;;;;;4.55;1.98;;;;;;;23.14;39.94;102177.69;4173909;28;20098;-64
2022/04/25 00:42:59;;;;;;;6.28;2.10;;;;;;;23.11;39.89;102166.19;4167933;28;20038;-64
2022/04/25 00:45:03;;;;;;;4.93;2.03;;;;;;;23.04;39.64;102161.66;4166723;28;20042;-64
2022/04/25 00:47:06;;;;;;;4.93;1.60;;;;;;;23.14;39.93;102166.50;4176442;28;20178;-65
2022/04/25 00:49:07;;;;;;;5.60;2.30;;;;;;;23.14;39.73;102171.22;4172972;28;20115;-63
2022/04/25 00:51:09;;;;;;;6.18;1.77;;;;;;;23.13;39.89;102184.34;4182062;28;20440;-65
2022/04/25 00:53:11;;;;;;;7.00;1.95;;;;;;;23.12;40.01;102185.47;4182839;28;20423;-64
2022/04/25 00:55:18;;;;;;;5.88;1.75;;;;;;;23.16;40.12;102181.03;4185528;28;20048;-63
2022/04/25 00:57:20;;;;;;;5.43;1.60;;;;;;;23.14;40.06;102177.69;4183889;28;20034;-64
2022/04/25 00:59:24;;;;;;;4.00;1.90;;;;;;;23.15;39.99;102186.91;4177289;28;20032;-65
2022/04/25 01:01:29;;;;;;;5.13;1.88;;;;;;;23.14;39.83;102191.66;4180811;28;20033;-64
2022/04/25 01:03:33;;;;;;;;;;;;;;;23.10;40.01;102187.69;4179873;28;20041;-63
2022/04/25 01:05:34;;;;;;;9.40;2.42;;;;;;;23.07;39.82;102174.25;4174512;28;19936;-65
2022/04/25 01:07:37;;;;;;;8.00;2.40;;;;;;;23.15;39.80;102184.94;4177716;28;20376;-65
2022/04/25 01:09:41;;;;;;;5.93;2.15;;;;;;;23.16;39.70;102189.41;4176588;28;20037;-64
2022/04/25 01:11:43;;;;;;;4.60;1.97;;;;;;;23.15;39.86;102195.28;4175679;28;20468;-64
2022/04/25 01:13:45;;;;;;;7.53;2.25;;;;;;;23.08;39.95;102187.94;4177418;28;20094;-64
2022/04/25 01:15:46;;;;;;;6.15;2.35;;;;;;;23.13;40.01;102203.91;4180283;28;20549;-64
2022/04/25 01:17:48;;;;;;;7.30;1.85;;;;;;;22.99;40.08;102181.16;4180964;28;20044;-64
2022/04/25 01:19:49;;;;;;;6.35;2.42;;;;;;;23.11;39.85;102199.69;4174357;28;20566;-64
2022/04/25 01:21:57;;;;;;;5.50;1.92;;;;;;;23.16;40.06;102208.13;4172962;28;20492;-65
2022/04/25 01:28:38;;;;;;;4.88;2.28;;;;;;;23.06;40.25;102183.75;4182100;28;20430;-64
2022/04/25 01:30:40;;;;;;;8.82;2.20;;;;;;;23.16;40.17;102202.53;4181098;28;20045;-64
2022/04/25 01:32:41;;;;;;;6.28;2.20;;;;;;;23.13;40.25;102209.47;4182190;28;20045;-66
2022/04/25 01:34:45;;;;;;;6.40;2.28;;;;;;;23.15;39.98;102212.88;4169994;28;20484;-66
2022/04/25 01:36:47;;;;;;;5.22;2.25;;;;;;;23.16;40.19;102205.31;4180338;28;20032;-66
2022/04/25 01:38:48;;;;;;;5.35;2.25;;;;;;;23.08;40.26;102184.31;4170708;28;20045;-64
2022/04/25 01:40:49;;;;;;;7.28;2.05;;;;;;;23.07;40.41;102193.81;4167124;28;20037;-65
2022/04/25 01:42:51;;;;;;;8.15;2.22;;;;;;;23.14;40.09;102216.78;4167088;28;20072;-67
2022/04/25 01:44:56;;;;;;;5.38;2.40;;;;;;;23.14;40.12;102222.38;4170871;28;20507;-65
2022/04/25 01:47:01;;;;;;;5.63;2.00;;;;;;;23.15;40.12;102214.81;4178674;28;20090;-65
2022/04/25 01:49:02;;;;;;;6.43;2.15;;;;;;;22.92;40.43;102176.91;4177090;28;20110;-64
2022/04/25 01:51:05;;;;;;;5.03;1.92;;;;;;;23.15;40.12;102200.88;4177851;28;20128;-64
2022/04/25 01:53:06;;;;;;;9.35;1.98;;;;;;;23.15;40.46;102209.25;4180690;28;20099;-65
2022/04/25 01:55:08;;;;;;;8.75;2.17;;;;;;;23.15;40.05;102201.69;4177752;28;20496;-64
2022/04/25 01:57:09;;;;;;;8.85;1.88;;;;;;;23.14;40.13;102200.03;4167009;28;20088;-64
2022/04/25 01:59:11;;;;;;;5.00;1.92;;;;;;;22.90;40.49;102170.75;4180919;28;20041;-64
2022/04/25 02:01:12;;;;;;;9.15;2.10;;;;;;;23.11;40.35;102203.34;4181318;28;20427;-65
2022/04/25 02:03:14;;;;;;;6.50;2.20;;;;;;;23.08;40.35;102201.91;4178970;28;20570;-63
2022/04/25 02:05:15;;;;;;;4.38;2.05;;;;;;;23.12;40.40;102204.16;4179396;28;20106;-65
2022/04/25 02:07:17;;;;;;;4.53;2.00;;;;;;;23.13;40.31;102203.06;4178253;28;20057;-64
2022/04/25 02:09:20;;;;;;;5.57;2.13;;;;;;;23.12;40.47;102207.81;4179900;28;20708;-64
2022/04/25 02:11:24;;;;;;;9.30;2.58;;;;;;;23.13;40.28;102209.47;4179943;28;20041;-64
2022/04/25 02:13:28;;;;;;;4.88;1.90;;;;;;;23.13;40.18;102195.53;4172536;28;20041;-64
2022/04/25 02:15:29;;;;;;;7.15;2.47;;;;;;;23.08;40.57;102184.31;4180835;28;20095;-65
2022/04/25 02:17:30;;;;;;;5.93;2.10;;;;;;;23.12;40.79;102190.22;4171808;28;20541;-64
2022/04/25 02:19:35;;;;;;;7.30;2.40;;;;;;;23.08;40.83;102181.53;4178022;28;20103;-64
2022/04/25 02:21:39;;;;;;;5.07;2.20;;;;;;;23.04;40.61;102178.41;4174161;28;20037;-64
2022/04/25 02:23:44;;;;;;;9.07;2.63;;;;;;;23.09;40.53;102186.00;4179133;28;20045;-65
2022/04/25 02:25:48;;;;;;;5.75;2.10;;;;;;;23.03;40.59;102176.72;4177225;28;20045;-64
2022/04/25 02:27:50;;;;;;;6.17;2.00;;;;;;;23.09;40.86;102177.63;4181562;28;20037;-63
2022/04/25 02:29:56;;;;;;;7.15;1.80;;;;;;;23.10;40.80;102186.84;4179925;28;20045;-64
2022/04/25 02:31:59;;;;;;;7.53;2.30;;;;;;;23.10;40.90;102186.84;4175094;28;20041;-64
2022/04/25 02:34:00;;;;;;;6.95;2.47;;;;;;;23.08;40.37;102178.72;4178767;28;20049;-64
2022/04/25 02:36:06;;;;;;;8.52;2.40;;;;;;;23.10;40.41;102182.13;4172920;28;20084;-64
2022/04/25 02:38:07;;;;;;;8.07;2.35;;;;;;;23.10;40.74;102182.13;4172144;28;20045;-64
2022/04/25 02:40:09;;;;;;;7.85;2.28;;;;;;;23.10;40.84;102181.28;4177074;28;20099;-64
2022/04/25 02:42:10;;;;;;;9.60;2.42;;;;;;;23.07;40.62;102171.47;4177156;28;20037;-65
2022/04/25 02:44:12;;;;;;;10.05;3.00;;;;;;;23.08;40.40;102175.94;4178053;28;20549;-64
2022/04/25 02:46:17;;;;;;;8.82;2.65;;;;;;;23.07;40.57;102171.47;4175949;28;20099;-65
2022/04/25 02:48:18;;;;;;;;;;;;;;;23.06;40.87;102161.41;4171472;28;20110;-64
2022/04/25 02:50:20;;;;;;;6.25;2.30;;;;;;;23.12;40.37;102165.09;4174632;28;20442;-64
2022/04/25 02:52:22;;;;;;;7.15;2.00;;;;;;;23.10;40.86;102165.34;4178742;28;20488;-64
2022/04/25 02:54:23;;;;;;;6.82;2.58;;;;;;;23.10;40.72;102186.84;4180909;28;20045;-64
2022/04/25 02:56:24;;;;;;;10.85;3.00;;;;;;;23.10;40.72;102186.84;4172388;28;20046;-62
2022/04/25 02:58:26;;;;;;;7.18;1.88;;;;;;;23.06;40.56;102175.38;4175801;28;20037;-63
2022/04/25 03:00:28;;;;;;;5.93;2.33;;;;;;;23.07;40.54;102182.63;4169492;28;20041;-64
2022/04/25 03:02:35;;;;;;;6.88;2.40;;;;;;;22.99;40.70;102169.16;4176306;28;20049;-64
2022/04/25 03:04:39;;;;;;;6.53;2.58;;;;;;;22.97;40.33;102160.22;4166143;28;20037;-63
2022/04/25 03:06:44;;;;;;;9.10;2.50;;;;;;;23.02;40.73;102174.22;4176243;28;20098;-64
2022/04/25 03:08:45;;;;;;;8.70;2.20;;;;;;;23.04;40.83;102178.41;4173081;28;20095;-64
2022/04/25 03:10:48;;;;;;;6.70;2.22;;;;;;;23.04;40.53;102172.81;4170771;28;20029;-64
2022/04/25 03:12:50;;;;;;;4.95;2.10;;;;;;;23.02;40.72;102169.47;4179177;28;20029;-64
2022/04/25 03:14:51;;;;;;;9.43;2.70;;;;;;;23.04;41.01;102166.41;4179481;28;20033;-64
2022/04/25 03:16:52;;;;;;;8.43;2.13;;;;;;;23.05;40.94;102168.94;4176698;28;20480;-64
2022/04/25 03:18:54;;;;;;;10.23;2.10;;;;;;;23.05;40.87;102155.00;4169022;28;20102;-64
2022/04/25 03:20:56;;;;;;;8.55;2.40;;;;;;;22.91;40.84;102136.13;4176612;28;20074;-64
2022/04/25 03:22:58;;;;;;;8.63;2.60;;;;;;;23.05;40.57;102165.31;4174759;28;20384;-64
2022/04/25 03:25:03;;;;;;;9.52;2.30;;;;;;;23.04;40.51;102150.50;4171455;28;20040;-62
2022/04/25 03:27:04;;;;;;;6.28;2.13;;;;;;;23.04;40.45;102149.66;4179432;28;20033;-63
2022/04/25 03:29:08;;;;;;;7.72;2.25;;;;;;;23.05;40.43;102159.75;4180469;28;20033;-63
2022/04/25 03:31:10;;;;;;;7.22;2.63;;;;;;;23.05;40.54;102156.94;4174564;28;20477;-63
2022/04/25 03:33:15;;;;;;;9.40;2.13;;;;;;;23.04;40.59;102149.66;4181348;28;20106;-64
2022/04/25 03:35:18;;;;;;;6.93;2.65;;;;;;;23.02;40.57;102149.94;4179638;28;20127;-64
2022/04/25 03:37:23;;;;;;;6.65;2.15;;;;;;;23.03;40.54;102139.59;4168649;28;20086;-64
2022/04/25 03:39:29;;;;;;;;;;;;;;;23.01;40.54;102134.28;4172630;28;20041;-64
2022/04/25 03:41:31;;;;;;;5.63;2.42;;;;;;;23.07;40.65;102135.16;4173507;28;20318;-64
2022/04/25 03:43:33;;;;;;;7.70;2.80;;;;;;;23.06;40.38;102125.13;4171459;28;20092;-64
2022/04/25 03:45:41;;;;;;;6.55;2.30;;;;;;;23.05;40.27;102129.03;4180576;28;20554;-64
2022/04/25 03:47:44;;;;;;;6.65;2.35;;;;;;;23.02;40.61;102129.53;4180494;28;20411;-64
2022/04/25 03:49:54;;;;;;;10.32;2.75;;;;;;;22.96;40.76;102125.03;4181213;28;20083;-64
2022/04/25 03:51:55;;;;;;;8.60;2.25;;;;;;;22.91;40.51;102111.00;4179021;28;20033;-64
2022/04/25 03:53:59;;;;;;;5.47;2.30;;;;;;;23.03;40.59;102131.22;4176462;28;20053;-64
2022/04/25 03:58:24;;;;;;;7.45;2.10;;;;;;;23.03;40.55;102122.84;4175132;28;20094;-64
2022/04/25 04:00:26;;;;;;;6.28;2.47;;;;;;;23.03;40.61;102134.03;4177319;28;20150;-65
2022/04/25 04:02:30;;;;;;;8.13;2.88;;;;;;;23.02;40.59;102123.97;4181494;28;20025;-63
2022/04/25 04:04:32;;;;;;;7.05;2.28;;;;;;;23.00;40.52;102118.66;4181799;28;20090;-64
2022/04/25 04:06:33;;;;;;;6.53;2.25;;;;;;;22.97;40.24;102115.56;4177814;28;20044;-63
2022/04/25 04:08:35;;;;;;;4.97;2.20;;;;;;;22.88;40.42;102098.41;4182043;28;20041;-64
2022/04/25 04:10:37;;;;;;;6.22;2.10;;;;;;;23.01;40.44;102116.72;4178257;28;20091;-64
2022/04/25 04:12:38;;;;;;;8.85;3.00;;;;;;;22.94;40.22;102099.31;4182751;28;20090;-64
2022/04/25 04:14:40;;;;;;;5.93;2.95;;;;;;;23.00;40.47;102095.47;4176507;28;20103;-64
2022/04/25 04:16:47;;;;;;;6.68;2.05;;;;;;;22.98;40.27;102106.06;4172468;28;20041;-63
2022/04/25 04:18:48;;;;;;;8.00;1.98;;;;;;;22.93;40.42;102104.06;4165715;28;20382;-63
2022/04/25 04:20:53;;;;;;;6.65;2.08;;;;;;;22.97;40.38;102109.97;4168191;28;20041;-64
2022/04/25 04:22:54;;;;;;;10.38;2.65;;;;;;;22.96;40.47;102106.34;4175667;28;20037;-64
2022/04/25 04:25:22;;;;;;;8.18;2.40;;;;;;;22.95;40.59;102106.59;4183753;28;20041;-64
2022/04/25 04:27:23;;;;;;;9.07;2.65;;;;;;;23.00;40.71;102103.84;4179820;28;20041;-64
2022/04/25 04:29:25;;;;;;;6.30;2.20;;;;;;;22.97;40.63;102104.38;4180900;28;20067;-64
2022/04/25 04:31:32;;;;;;;6.93;2.30;;;;;;;23.01;40.60;102111.13;4168812;28;20055;-64
2022/04/25 04:33:33;;;;;;;9.70;2.55;;;;;;;23.01;40.32;102116.72;4165198;28;20049;-63
2022/04/25 04:37:54;;;;;;;4.75;2.47;;;;;;;23.01;40.18;102116.72;4172689;28;20099;-64
2022/04/25 04:42:19;;;;;;;8.43;2.35;;;;;;;22.97;40.62;102109.97;4167485;28;20118;-62
2022/04/25 04:44:20;;;;;;;4.25;2.20;;;;;;;22.98;40.52;102120.84;4183121;28;20083;-63
2022/04/25 04:46:22;;;;;;;5.03;2.30;;;;;;;22.99;40.41;102125.31;4178522;28;20044;-63
2022/04/25 04:48:24;;;;;;;5.35;2.00;;;;;;;22.92;40.30;102110.78;4171101;28;20033;-65
2022/04/25 04:50:25;;;;;;;6.10;2.63;;;;;;;22.99;40.34;102116.94;4169976;28;20045;-64
2022/04/25 04:52:27;;;;;;;6.78;2.05;;;;;;;22.97;40.57;102109.97;4170232;28;20083;-64
2022/04/25 04:54:28;;;;;;;6.65;2.08;;;;;;;22.97;40.39;102112.75;4170434;28;20447;-63
2022/04/25 04:56:30;;;;;;;9.68;2.55;;;;;;;22.97;40.50;102109.97;4169898;28;20099;-63
2022/04/25 04:58:31;;;;;;;6.35;2.50;;;;;;;22.92;40.74;102113.56;4180967;28;20087;-63
2022/04/25 05:00:33;;;;;;;6.57;2.10;;;;;;;22.95;40.44;102124.19;4173593;28;20037;-63
2022/04/25 05:02:35;;;;;;;6.05;2.55;;;;;;;22.98;40.80;102142.34;4173829;28;20079;-64
2022/04/25 05:04:38;;;;;;;6.10;2.15;;;;;;;22.98;40.42;102133.97;4180958;28;20095;-64
2022/04/25 05:06:39;;;;;;;5.15;2.28;;;;;;;22.95;40.26;102134.50;4173774;28;20058;-63
2022/04/25 05:08:40;;;;;;;7.68;2.35;;;;;;;22.98;40.40;102145.16;4173168;28;20045;-63
2022/04/25 05:10:42;;;;;;;6.18;2.00;;;;;;;22.97;40.54;102149.06;4181339;28;20057;-64
2022/04/25 05:12:49;;;;;;;4.90;2.30;;;;;;;22.98;40.31;102145.16;4172251;28;20049;-63
2022/04/25 05:14:53;;;;;;;3.33;1.63;;;;;;;22.98;40.60;102145.16;4174307;28;20053;-64
2022/04/25 05:16:54;;;;;;;5.43;2.30;;;;;;;22.97;40.21;102132.31;4174520;28;20083;-63
2022/04/25 05:18:56;;;;;;;4.93;2.00;;;;;;;23.00;40.52;102128.97;4173314;28;20367;-64
2022/04/25 05:20:58;;;;;;;7.05;1.95;;;;;;;22.99;40.36;102127.28;4175797;28;20477;-64
2022/04/25 05:23:02;;;;;;;4.50;1.92;;;;;;;22.79;40.54;102092.47;4181341;28;20044;-64
2022/04/25 05:25:04;;;;;;;7.07;2.38;;;;;;;22.98;40.19;102123.66;4170978;28;20041;-63
2022/04/25 05:27:06;;;;;;;7.10;2.45;;;;;;;22.98;40.49;102111.66;4166474;28;20111;-64
2022/04/25 05:29:10;;;;;;;5.15;1.95;;;;;;;22.98;40.30;102126.44;4175846;28;20040;-64
2022/04/25 05:31:17;;;;;;;5.13;2.25;;;;;;;22.99;40.21;102136.50;4183358;28;20045;-63
2022/04/25 05:33:19;;;;;;;7.60;2.20;;;;;;;22.98;40.27;102122.81;4176046;28;20573;-63
2022/04/25 05:35:28;;;;;;;6.00;2.08;;;;;;;22.97;40.12;102130.34;4163737;28;20049;-62
2022/04/25 05:37:30;;;;;;;4.95;2.40;;;;;;;22.83;40.28;102104.81;4179524;28;20045;-63
2022/04/25 05:39:32;;;;;;;6.50;1.90;;;;;;;23.00;40.28;102131.75;4176030;28;20049;-63
2022/04/25 05:41:36;;;;;;;6.05;2.00;;;;;;;22.98;40.46;102128.41;4165274;28;20075;-63
2022/04/25 05:43:39;;;;;;;6.82;2.40;;;;;;;22.98;40.20;102129.22;4170229;28;20571;-63
2022/04/25 05:45:44;;;;;;;7.85;2.03;;;;;;;22.99;40.18;102124.50;4169945;28;20049;-63
2022/04/25 05:47:45;;;;;;;5.53;2.30;;;;;;;22.98;40.42;102128.41;4179586;28;20049;-63
2022/04/25 05:52:08;;;;;;;4.57;2.10;;;;;;;22.97;40.41;102121.97;4169338;28;20553;-63
2022/04/25 05:54:12;;;;;;;6.20;1.95;;;;;;;22.88;40.55;102111.53;4173290;28;20041;-63
2022/04/25 05:56:15;;;;;;;6.43;2.03;;;;;;;22.79;40.37;102098.06;4165707;28;20546;-63
2022/04/25 05:58:19;;;;;;;4.32;1.75;;;;;;;22.96;40.40;102117.50;4171280;28;20066;-63
2022/04/25 06:00:21;;;;;;;4.30;1.85;;;;;;;22.96;40.20;102117.50;4164799;28;20038;-63
2022/04/25 06:02:22;;;;;;;6.05;2.20;;;;;;;22.96;40.18;102119.47;4170224;28;20090;-63
2022/04/25 06:04:24;;;;;;;6.05;1.90;;;;;;;22.95;40.10;102112.16;4174675;28;20472;-63
2022/04/25 06:06:26;;;;;;;4.38;1.90;;;;;;;22.95;40.43;102103.78;4164674;28;20103;-63
2022/04/25 06:08:27;;;;;;;7.25;2.00;;;;;;;22.95;40.37;102106.59;4176448;28;20038;-63
2022/04/25 06:10:28;;;;;;;5.32;2.00;;;;;;;22.96;40.05;102113.88;4178574;28;20036;-63
2022/04/25 06:12:32;;;;;;;4.57;1.90;;;;;;;22.95;40.50;102117.75;4169032;28;20037;-64
2022/04/25 06:14:40;;;;;;;6.57;2.20;;;;;;;22.90;40.13;102098.19;4180721;28;20086;-64
2022/04/25 06:16:41;;;;;;;4.82;2.05;;;;;;;22.93;40.25;102098.50;4179367;28;20087;-64
2022/04/25 06:18:43;;;;;;;6.70;2.30;;;;;;;22.93;40.12;102092.91;4168410;28;20068;-64
2022/04/25 06:20:44;;;;;;;4.35;2.17;;;;;;;22.93;40.15;102092.91;4164603;28;20057;-64
2022/04/25 06:23:06;;;;;;;4.65;1.73;;;;;;;22.89;40.36;102086.19;4164255;28;20026;-64
2022/04/25 06:25:08;;;;;;;6.60;2.13;;;;;;;22.86;40.40;102074.66;4165036;28;20037;-64
2022/04/25 06:27:09;;;;;;;4.75;2.20;;;;;;;22.94;40.15;102093.75;4166922;28;20488;-65
2022/04/25 06:29:10;;;;;;;6.40;2.33;;;;;;;22.91;40.35;102094.28;4172828;28;20037;-64
2022/04/25 06:31:12;;;;;;;6.80;1.80;;;;;;;22.92;40.21;102105.19;4164715;28;20041;-64
2022/04/25 06:33:13;;;;;;;6.43;2.10;;;;;;;22.91;40.21;102111.00;4165634;28;20118;-65
2022/04/25 06:35:15;;;;;;;6.30;2.17;;;;;;;22.92;40.06;102098.78;4163762;28;20095;-64
2022/04/25 06:37:19;;;;;;;3.58;1.60;;;;;;;22.91;40.09;102089.56;4177368;28;20032;-65
2022/04/25 06:39:20;;;;;;;3.67;1.90;;;;;;;22.92;40.06;102094.03;4172206;28;20045;-64
2022/04/25 06:41:22;;;;;;;4.50;2.13;;;;;;;22.91;39.90;102092.34;4164637;28;20033;-65
2022/04/25 06:43:23;;;;;;;5.43;1.90;;;;;;;22.84;40.20;102069.34;4163434;28;20111;-64
2022/04/25 06:45:24;;;;;;;5.70;2.05;;;;;;;22.88;40.34;102069.66;4176093;28;20083;-64
2022/04/25 06:47:26;;;;;;;3.85;2.08;;;;;;;22.91;40.17;102075.59;4176078;28;20419;-64
2022/04/25 06:49:27;;;;;;;5.38;2.00;;;;;;;22.89;39.85;102076.94;4179342;28;20040;-64
2022/04/25 06:51:32;;;;;;;4.85;2.00;;;;;;;22.83;40.15;102076.91;4174359;28;20041;-64
2022/04/25 06:53:33;;;;;;;4.13;1.80;;;;;;;22.89;40.35;102096.47;4177859;28;20048;-64
2022/04/25 06:55:37;;;;;;;4.32;1.83;;;;;;;22.86;39.88;102091.41;4174002;28;20084;-64
2022/04/25 06:57:38;;;;;;;5.70;1.97;;;;;;;22.88;40.32;102092.84;4164516;28;20042;-64
2022/04/25 06:59:40;;;;;;;4.63;2.10;;;;;;;22.87;40.25;102088.38;4176487;28;20475;-64
2022/04/25 07:01:42;;;;;;;9.02;2.30;;;;;;;22.87;40.24;102095.91;4167652;28;20563;-65
2022/04/25 07:03:44;;;;;;;4.30;2.00;;;;;;;22.86;40.30;102081.09;4183058;28;20095;-64
2022/04/25 07:05:45;;;;;;;2.90;1.60;;;;;;;22.88;40.08;102094.78;4167620;28;20087;-65
2022/04/25 07:07:47;;;;;;;2.55;1.73;;;;;;;22.79;39.81;102078.53;4170243;28;20057;-64
2022/04/25 07:09:51;;;;;;;3.60;1.70;;;;;;;22.89;39.93;102085.31;4178136;28;20473;-64
2022/04/25 07:11:52;;;;;;;6.33;2.07;;;;;;;22.81;40.19;102075.47;4184196;28;20049;-64
2022/04/25 07:13:55;;;;;;;3.08;1.60;;;;;;;22.81;40.06;102076.31;4173541;28;20283;-64
2022/04/25 07:15:56;;;;;;;4.75;1.70;;;;;;;22.86;40.02;102075.50;4166772;28;20099;-64
2022/04/25 07:18:00;;;;;;;3.00;1.52;;;;;;;22.86;40.37;102074.66;4167815;28;20037;-64
2022/04/25 07:20:01;;;;;;;3.72;1.63;;;;;;;22.79;40.06;102066.53;4179225;28;20122;-63
2022/04/25 07:29:06;;;;;;;5.45;1.60;;;;;;;22.78;39.97;102057.31;4181783;28;20090;-64
2022/04/25 07:31:07;;;;;;;4.95;1.73;;;;;;;22.68;40.21;102046.09;4182121;28;20484;-63
2022/04/25 07:33:09;;;;;;;4.47;1.85;;;;;;;22.70;40.21;102046.66;4180920;28;20106;-63
2022/04/25 07:35:10;;;;;;;4.28;1.92;;;;;;;22.74;40.09;102050.59;4166039;28;20469;-63
2022/04/25 07:37:12;;;;;;;4.78;1.85;;;;;;;22.80;39.87;102060.66;4166445;28;20041;-64
2022/04/25 07:39:13;;;;;;;4.55;1.67;;;;;;;22.81;40.12;102051.19;4175434;28;20048;-64
2022/04/25 07:41:15;;;;;;;4.25;1.88;;;;;;;22.80;40.34;102043.94;4181371;28;20581;-63
2022/04/25 07:43:18;;;;;;;3.35;1.58;;;;;;;22.79;40.18;102047.84;4179970;28;20095;-63
2022/04/25 07:45:19;;;;;;;4.45;1.73;;;;;;;22.80;39.90;102046.72;4167713;28;20049;-63
2022/04/25 07:47:22;;;;;;;5.00;1.80;;;;;;;22.81;40.25;102053.97;4167625;28;20041;-63
2022/04/25 07:49:24;;;;;;;3.95;1.95;;;;;;;22.81;39.90;102053.97;4167202;28;20084;-63
2022/04/25 07:51:25;;;;;;;3.58;1.77;;;;;;;22.81;40.09;102056.75;4166363;28;20099;-63
2022/04/25 07:53:27;;;;;;;3.58;1.90;;;;;;;22.80;40.17;102046.72;4166989;28;20025;-63
2022/04/25 07:55:32;;;;;;;4.30;1.75;;;;;;;22.79;40.31;102047.84;4174406;28;20158;-63
2022/04/25 07:57:34;;;;;;;;;;;;;;;22.77;40.20;102044.47;4174088;28;20510;-63
2022/04/25 07:59:35;;;;;;;5.07;1.55;;;;;;;22.80;40.11;102040.31;4176555;28;19924;-63
2022/04/25 08:01:37;;;;;;;4.28;2.13;;;;;;;22.82;39.88;102050.09;4177106;28;20033;-63
2022/04/25 08:03:38;;;;;;;5.30;1.67;;;;;;;22.81;39.97;102067.94;4178323;28;20048;-63
2022/04/25 08:05:39;;;;;;;5.55;1.77;;;;;;;22.79;39.95;102070.16;4170250;28;20469;-63
2022/04/25 08:07:41;;;;;;;4.07;1.80;;;;;;;22.76;40.07;102064.25;4167719;28;20045;-63
2022/04/25 08:09:45;;;;;;;4.32;1.95;;;;;;;22.77;39.93;102066.81;4177975;28;20334;-63
2022/04/25 08:11:47;;;;;;;6.53;1.77;;;;;;;22.76;40.12;102058.69;4166431;28;20111;-63
2022/04/25 08:18:31;;;;;;;4.65;2.15;;;;;;;22.79;40.07;102047.84;4167703;28;20080;-64
2022/04/25 08:20:36;;;;;;;4.15;1.65;;;;;;;22.64;39.94;102019.81;4173196;28;20037;-63
2022/04/25 08:22:38;;;;;;;3.28;1.67;;;;;;;22.74;40.17;102045.00;4181058;28;20067;-63
2022/04/25 08:24:42;;;;;;;5.03;1.55;;;;;;;22.77;40.14;102055.66;4185026;28;20115;-63
2022/04/25 08:26:44;;;;;;;3.95;1.80;;;;;;;22.76;39.73;102053.94;4184845;28;20091;-64
2022/04/25 08:28:46;;;;;;;4.20;2.13;;;;;;;22.70;40.14;102043.84;4177987;28;20438;-64
2022/04/25 08:30:52;;;;;;;3.88;1.75;;;;;;;22.77;39.94;102057.56;4166034;28;20362;-63
2022/04/25 08:32:56;;;;;;;5.05;1.60;;;;;;;22.75;39.69;102052.25;4167121;28;20044;-63
2022/04/25 08:34:57;;;;;;;6.10;2.22;;;;;;;22.68;40.13;102046.09;4178342;28;20029;-63
2022/04/25 08:36:59;;;;;;;4.47;1.75;;;;;;;22.72;40.11;102057.53;4165914;28;20469;-63
2022/04/25 08:39:00;;;;;;;5.18;2.10;;;;;;;22.65;39.80;102041.03;4165959;28;20103;-63
2022/04/25 08:41:02;;;;;;;3.45;1.80;;;;;;;22.75;39.88;102060.63;4165974;28;21021;-63
2022/04/25 08:43:06;;;;;;;4.72;1.83;;;;;;;22.76;39.76;102056.72;4171367;28;20084;-63
2022/04/25 08:45:09;;;;;;;3.27;1.97;;;;;;;22.77;39.87;102064.00;4176927;28;20037;-63
2022/04/25 08:47:15;;;;;;;2.90;1.52;;;;;;;22.75;40.04;102057.84;4176885;28;20090;-63
2022/04/25 08:49:18;;;;;;;3.65;1.90;;;;;;;22.77;39.84;102061.22;4171607;28;20115;-63
2022/04/25 08:51:22;;;;;;;3.60;1.70;;;;;;;22.77;39.85;102066.81;4165337;28;20091;-63
2022/04/25 08:53:26;;;;;;;3.65;1.77;;;;;;;22.77;39.85;102074.31;4167076;28;20045;-63
2022/04/25 08:55:29;;;;;;;3.25;1.48;;;;;;;22.76;39.79;102081.84;4169278;28;20373;-63
2022/04/25 08:57:35;;;;;;;3.10;1.58;;;;;;;22.74;39.46;102089.66;4177191;28;20049;-63
2022/04/25 08:59:37;;;;;;;3.58;1.70;;;;;;;22.72;39.65;102086.28;4165972;28;20042;-63
2022/04/25 09:01:41;;;;;;;3.97;1.63;;;;;;;22.69;39.55;102085.97;4165852;28;20041;-63
2022/04/25 09:03:43;;;;;;;3.13;1.60;;;;;;;22.74;39.81;102095.22;4170866;28;20048;-64
2022/04/25 09:05:44;;;;;;;3.95;1.48;;;;;;;22.73;39.86;102087.97;4166110;28;20108;-63
2022/04/25 09:07:52;;;;;;;4.50;1.67;;;;;;;22.72;39.77;102086.28;4172586;28;20369;-63
2022/04/25 09:09:57;;;;;;;4.15;1.60;;;;;;;22.72;39.90;102089.06;4183118;28;20041;-63
2022/04/25 09:12:10;;;;;;;3.42;1.60;;;;;;;22.72;39.80;102086.28;4179756;28;20091;-63
2022/04/25 09:14:12;;;;;;;5.60;2.13;;;;;;;22.72;39.98;102080.69;4180614;28;20099;-63
2022/04/25 09:16:15;;;;;;;2.50;1.45;;;;;;;22.72;40.04;102082.63;4179060;28;20525;-63
2022/04/25 09:18:17;;;;;;;4.65;1.60;;;;;;;22.71;39.73;102084.59;4179469;28;20549;-64
2022/04/25 09:20:22;;;;;;;3.50;1.80;;;;;;;22.70;39.54;102082.91;4165638;28;20067;-63
2022/04/25 09:22:32;;;;;;;3.47;1.50;;;;;;;22.71;39.51;102089.34;4183333;28;20044;-63
2022/04/25 09:24:36;;;;;;;5.00;1.50;;;;;;;22.70;39.89;102096.88;4173207;28;20029;-64
2022/04/25 09:26:37;;;;;;;3.05;1.35;;;;;;;22.69;39.94;102086.81;4173478;28;20434;-64
2022/04/25 09:28:52;;;;;;;3.90;1.83;;;;;;;22.67;39.66;102099.34;4180650;28;20037;-65
2022/04/25 09:31:00;;;;;;;4.38;1.75;;;;;;;22.67;39.90;102097.38;4165625;28;20103;-64
2022/04/25 09:33:20;;;;;;;3.13;1.73;;;;;;;22.67;39.76;102094.59;4176216;28;20045;-64
2022/04/25 09:35:40;;;;;;;3.05;1.50;;;;;;;22.61;39.80;102081.72;4171381;28;20041;-65
2022/04/25 09:37:46;;;;;;;4.18;1.95;;;;;;;22.69;39.53;102097.16;4165058;28;20111;-65
2022/04/25 09:39:48;;;;;;;4.60;1.48;;;;;;;22.69;39.53;102094.34;4164589;28;20091;-65
2022/04/25 09:41:49;;;;;;;4.75;2.38;;;;;;;22.64;39.75;102094.31;4164614;28;20084;-65
2022/04/25 09:43:58;;;;;;;3.88;2.00;;;;;;;22.47;39.52;102060.94;4164753;28;20058;-64
2022/04/25 09:46:10;;;;;;;1.65;1.20;;;;;;;22.67;39.55;102094.59;4169276;28;20099;-64
2022/04/25 09:48:15;;;;;;;3.70;1.35;;;;;;;22.64;39.61;102095.16;4166589;28;20465;-64
2022/04/25 09:50:17;;;;;;;4.35;1.45;;;;;;;22.69;39.71;102109.13;4166551;28;20037;-65
2022/04/25 09:52:18;;;;;;;3.40;1.45;;;;;;;22.71;39.51;102108.88;4172342;28;20090;-64
2022/04/25 09:54:25;;;;;;;2.30;1.38;;;;;;;22.68;39.50;102107.47;4175724;28;20075;-64
2022/04/25 09:56:33;;;;;;;4.57;1.58;;;;;;;22.68;39.47;102109.38;4171066;28;20091;-64
2022/04/25 09:58:39;;;;;;;5.97;1.83;;;;;;;22.69;39.81;102119.47;4164930;28;20045;-64